KHTO 070915Z AUTO 00000KT 10SM CLR 07/02 A2992 RMK AO2 T00650024

KHTO 070815Z AUTO 02003KT 10SM CLR 06/02 A2992 RMK AO2 T00630024

KHTO 070715Z AUTO 34005KT 10SM CLR 08/02 A2991 RMK AO2 T00840020

KHTO 070615Z AUTO 32005KT 10SM CLR 10/01 A2991 RMK AO2 T00970012

KHTO 070455Z AUTO 30003KT 10SM CLR 07/04 A2993 RMK AO2 T00650036 401780060

KHTO 070415Z AUTO 00000KT 10SM CLR 07/03 A2994 RMK AO2 T00660026

KHTO 070315Z AUTO 00000KT 10SM CLR 08/03 A2994 RMK AO2 T00810025

KHTO 070215Z AUTO 00000KT 10SM CLR 10/02 A2994 RMK AO2 T01000015